createdAt,value
2022-10-18T00:00:05.983Z,356
2022-10-18T00:01:05.724Z,361
2022-10-18T00:02:05.899Z,371
2022-10-18T00:03:05.450Z,366
2022-10-18T00:04:05.042Z,363
2022-10-18T00:05:05.769Z,377
2022-10-18T00:06:19.398Z,368
2022-10-18T00:07:05.524Z,351
2022-10-18T00:08:04.727Z,369
2022-10-18T00:09:05.162Z,363
2022-10-18T00:11:05.130Z,362
2022-10-18T00:12:05.633Z,363
2022-10-18T00:13:05.215Z,364
2022-10-18T00:14:05.723Z,359
2022-10-18T00:15:05.623Z,364
2022-10-18T00:16:05.458Z,361
2022-10-18T00:17:04.826Z,369
2022-10-18T00:18:05.705Z,371
2022-10-18T00:19:05.061Z,364
2022-10-18T00:20:05.339Z,360
2022-10-18T00:21:05.812Z,354
2022-10-18T00:22:05.407Z,340
2022-10-18T00:23:04.843Z,389
2022-10-18T00:24:05.370Z,353
2022-10-18T00:25:05.233Z,351
2022-10-18T00:26:05.529Z,365
2022-10-18T00:27:05.030Z,356
2022-10-18T00:28:05.656Z,358
2022-10-18T00:29:04.759Z,368
2022-10-18T00:30:05.461Z,369
2022-10-18T00:31:05.227Z,368
2022-10-18T00:33:05.329Z,369
2022-10-18T00:34:04.831Z,366
2022-10-18T00:36:05.790Z,371
2022-10-18T00:37:05.244Z,356
2022-10-18T00:38:05.639Z,361
2022-10-18T00:39:05.126Z,364
2022-10-18T00:40:05.738Z,369
2022-10-18T00:41:05.226Z,361
2022-10-18T00:42:05.656Z,363
2022-10-18T00:44:05.331Z,366
2022-10-18T00:45:05.909Z,369
2022-10-18T00:46:05.354Z,360
2022-10-18T00:47:04.625Z,365
2022-10-18T00:48:04.881Z,375
2022-10-18T00:49:04.991Z,370
2022-10-18T00:50:05.261Z,343
2022-10-18T00:51:05.595Z,342
2022-10-18T00:52:04.760Z,363
2022-10-18T00:53:04.979Z,361
2022-10-18T00:54:05.238Z,364
2022-10-18T00:55:05.641Z,359
2022-10-18T00:56:05.063Z,348
2022-10-18T00:57:05.396Z,372
2022-10-18T00:58:04.788Z,360
2022-10-18T00:59:04.999Z,344
2022-10-18T01:00:05.952Z,353
2022-10-18T01:01:05.662Z,356
2022-10-18T01:03:05.880Z,362
2022-10-18T01:04:05.391Z,364
2022-10-18T01:05:04.956Z,370
2022-10-18T01:06:05.253Z,368
2022-10-18T01:07:05.778Z,370
2022-10-18T01:08:05.332Z,363
2022-10-18T01:09:06.071Z,360
2022-10-18T01:10:05.836Z,370
2022-10-18T01:11:05.200Z,365
2022-10-18T01:12:05.830Z,362
2022-10-18T01:13:05.048Z,359
2022-10-18T01:14:05.876Z,364
2022-10-18T01:16:05.317Z,377
2022-10-18T01:17:05.916Z,386
2022-10-18T01:18:05.574Z,374
2022-10-18T01:19:05.038Z,386
2022-10-18T01:20:05.922Z,373
2022-10-18T01:21:05.577Z,367
2022-10-18T01:22:05.279Z,371
2022-10-18T01:23:05.758Z,373
2022-10-18T01:24:05.114Z,368
2022-10-18T01:26:05.148Z,364
2022-10-18T01:27:05.850Z,361
2022-10-18T01:28:05.262Z,362
2022-10-18T01:29:05.967Z,363
2022-10-18T01:30:06.028Z,358
2022-10-18T01:31:05.804Z,346
2022-10-18T01:32:05.331Z,391
2022-10-18T01:33:04.847Z,372
2022-10-18T01:34:05.350Z,371
2022-10-18T01:35:05.990Z,368
2022-10-18T01:36:05.875Z,367
2022-10-18T01:37:05.242Z,366
2022-10-18T01:38:05.652Z,364
2022-10-18T01:39:05.055Z,363
2022-10-18T01:40:05.727Z,355
2022-10-18T01:41:05.148Z,353
2022-10-18T01:42:05.746Z,366
2022-10-18T01:43:08.216Z,368
2022-10-18T01:44:05.733Z,366
2022-10-18T01:45:05.360Z,371
2022-10-18T01:46:04.969Z,374
2022-10-18T01:47:05.641Z,377
2022-10-18T01:48:05.130Z,371
2022-10-18T01:49:05.755Z,376
2022-10-18T01:50:05.467Z,368
2022-10-18T01:51:05.159Z,367
2022-10-18T01:52:05.801Z,365
2022-10-18T01:53:05.782Z,357
2022-10-18T01:55:05.811Z,361
2022-10-18T01:56:05.336Z,371
2022-10-18T01:57:05.965Z,374
2022-10-18T01:58:05.600Z,368
2022-10-18T01:59:05.303Z,356
2022-10-18T02:00:06.541Z,363
2022-10-18T02:01:05.455Z,365
2022-10-18T02:02:05.767Z,361
2022-10-18T02:04:05.340Z,370
2022-10-18T02:05:05.981Z,366
2022-10-18T02:06:05.858Z,358
2022-10-18T02:07:05.565Z,394
2022-10-18T02:08:19.213Z,375
2022-10-18T02:09:05.308Z,380
2022-10-18T02:10:05.690Z,398
2022-10-18T02:11:10.369Z,391
2022-10-18T02:12:05.757Z,389
2022-10-18T02:13:05.124Z,396
2022-10-18T02:14:05.577Z,402
2022-10-18T02:15:05.315Z,396
2022-10-18T02:16:05.646Z,387
2022-10-18T02:18:05.798Z,376
2022-10-18T02:19:05.269Z,384
2022-10-18T02:20:05.894Z,386
2022-10-18T02:21:05.548Z,397
2022-10-18T02:22:04.849Z,387
2022-10-18T02:23:05.200Z,381
2022-10-18T02:24:05.738Z,384
2022-10-18T02:25:19.212Z,385
2022-10-18T02:26:05.308Z,366
2022-10-18T02:27:05.633Z,362
2022-10-18T02:28:04.951Z,365
2022-10-18T02:29:05.478Z,372
2022-10-18T02:30:05.167Z,368
2022-10-18T02:31:05.521Z,376
2022-10-18T02:32:04.904Z,374
2022-10-18T02:33:05.134Z,370
2022-10-18T02:34:05.597Z,362
2022-10-18T02:35:05.184Z,372
2022-10-18T02:36:05.343Z,375
2022-10-18T02:37:04.813Z,374
2022-10-18T02:38:05.032Z,370
2022-10-18T02:39:05.463Z,375
2022-10-18T02:40:04.763Z,371
2022-10-18T02:41:05.254Z,372
2022-10-18T02:42:05.651Z,365
2022-10-18T02:43:04.790Z,372
2022-10-18T02:44:04.988Z,377
2022-10-18T02:45:05.721Z,376
2022-10-18T02:46:05.197Z,378
2022-10-18T02:47:05.632Z,372
2022-10-18T02:48:04.975Z,367
2022-10-18T02:51:05.068Z,371
2022-10-18T02:52:05.263Z,376
2022-10-18T02:53:05.479Z,372
2022-10-18T02:55:05.286Z,378
2022-10-18T02:56:05.620Z,382
2022-10-18T02:57:05.081Z,376
2022-10-18T02:58:05.457Z,362
2022-10-18T02:59:04.784Z,404
2022-10-18T03:00:06.131Z,383
2022-10-18T03:01:05.648Z,380
2022-10-18T03:03:05.809Z,381
2022-10-18T03:05:04.981Z,374
2022-10-18T03:06:05.666Z,369
2022-10-18T03:07:05.143Z,371
2022-10-18T03:08:05.682Z,378
2022-10-18T03:09:04.990Z,375
2022-10-18T03:10:05.596Z,384
2022-10-18T03:11:05.304Z,381
2022-10-18T03:12:05.846Z,379
2022-10-18T03:13:05.419Z,373
2022-10-18T03:14:05.397Z,374
2022-10-18T03:16:04.944Z,385
2022-10-18T03:17:05.363Z,400
2022-10-18T03:18:06.048Z,388
2022-10-18T03:20:05.293Z,393
2022-10-18T03:21:05.793Z,389
2022-10-18T03:22:05.675Z,386
2022-10-18T03:23:04.978Z,387
2022-10-18T03:24:05.150Z,388
2022-10-18T03:25:05.641Z,380
2022-10-18T03:26:04.937Z,387
2022-10-18T03:27:05.121Z,386
2022-10-18T03:28:05.634Z,377
2022-10-18T03:29:05.032Z,387
2022-10-18T03:30:05.633Z,388
2022-10-18T03:31:05.124Z,378
2022-10-18T03:32:05.744Z,377
2022-10-18T03:33:05.224Z,371
2022-10-18T03:34:05.564Z,367
2022-10-18T03:35:05.109Z,397
2022-10-18T03:36:05.533Z,384
2022-10-18T03:37:05.520Z,367
2022-10-18T03:39:05.102Z,376
2022-10-18T03:40:05.656Z,373
2022-10-18T03:41:05.071Z,368
2022-10-18T03:42:05.776Z,373
2022-10-18T03:43:05.181Z,371
2022-10-18T03:44:05.520Z,380
2022-10-18T03:45:05.211Z,375
2022-10-18T03:46:05.622Z,379
2022-10-18T03:47:04.907Z,384
2022-10-18T03:48:05.154Z,376
2022-10-18T03:50:05.069Z,379
2022-10-18T03:51:05.551Z,388
2022-10-18T03:52:04.896Z,398
2022-10-18T03:53:05.158Z,360
2022-10-18T03:54:05.665Z,371
2022-10-18T03:55:05.578Z,377
2022-10-18T03:56:04.818Z,368
2022-10-18T03:57:04.919Z,365
2022-10-18T03:58:05.296Z,364
2022-10-18T03:59:05.690Z,369
2022-10-18T04:00:05.840Z,364
2022-10-18T04:01:05.445Z,367
2022-10-18T04:02:04.902Z,366
2022-10-18T04:03:05.345Z,361
2022-10-18T04:04:05.824Z,371
2022-10-18T04:05:05.168Z,375
2022-10-18T04:07:05.154Z,379
2022-10-18T04:08:05.272Z,382
2022-10-18T04:09:07.945Z,372
2022-10-18T04:10:05.299Z,393
2022-10-18T04:11:05.797Z,367
2022-10-18T04:12:05.371Z,376
2022-10-18T04:13:05.693Z,381
2022-10-18T04:15:05.581Z,379
2022-10-18T04:16:04.796Z,388
2022-10-18T04:17:05.197Z,396
2022-10-18T04:18:05.715Z,393
2022-10-18T04:19:05.236Z,384
2022-10-18T04:20:05.702Z,377
2022-10-18T04:21:05.012Z,376
2022-10-18T04:22:05.328Z,378
2022-10-18T04:23:05.468Z,381
2022-10-18T04:24:05.708Z,377
2022-10-18T04:25:05.250Z,384
2022-10-18T04:26:05.778Z,386
2022-10-18T04:27:05.091Z,375
2022-10-18T04:28:05.635Z,387
2022-10-18T04:29:04.881Z,378
2022-10-18T04:30:05.300Z,383
2022-10-18T04:31:05.569Z,381
2022-10-18T04:33:05.278Z,380
2022-10-18T04:34:05.493Z,376
2022-10-18T04:35:04.934Z,381
2022-10-18T04:36:10.176Z,385
2022-10-18T04:37:05.525Z,384
2022-10-18T04:38:09.690Z,372
2022-10-18T04:39:04.973Z,369
2022-10-18T04:40:05.372Z,374
2022-10-18T04:42:05.138Z,379
2022-10-18T04:43:05.221Z,381
2022-10-18T04:44:05.696Z,379
2022-10-18T04:45:05.308Z,387
2022-10-18T04:46:05.573Z,390
2022-10-18T04:47:05.066Z,383
2022-10-18T04:49:04.922Z,381
2022-10-18T04:51:05.782Z,382
2022-10-18T04:52:04.989Z,389
2022-10-18T04:53:05.342Z,397
2022-10-18T04:54:05.773Z,389
2022-10-18T04:55:05.083Z,386
2022-10-18T04:56:05.520Z,380
2022-10-18T04:57:05.777Z,382
2022-10-18T04:58:05.168Z,370
2022-10-18T04:59:05.790Z,372
2022-10-18T05:00:05.960Z,378
2022-10-18T05:01:04.966Z,380
2022-10-18T05:02:05.159Z,383
2022-10-18T05:03:05.903Z,387
2022-10-18T05:04:05.302Z,381
2022-10-18T05:05:08.111Z,383
2022-10-18T05:06:05.136Z,389
2022-10-18T05:07:05.793Z,394
2022-10-18T05:08:05.654Z,383
2022-10-18T05:09:04.947Z,387
2022-10-18T05:10:24.247Z,389
2022-10-18T05:11:05.610Z,386
2022-10-18T05:12:05.013Z,389
2022-10-18T05:14:05.609Z,388
2022-10-18T05:15:05.180Z,398
2022-10-18T05:16:05.807Z,377
2022-10-18T05:17:05.502Z,383
2022-10-18T05:18:04.844Z,388
2022-10-18T05:19:05.115Z,396
2022-10-18T05:20:05.903Z,380
2022-10-18T05:21:05.590Z,379
2022-10-18T05:22:05.183Z,388
2022-10-18T05:23:05.599Z,387
2022-10-18T05:24:04.998Z,383
2022-10-18T05:25:05.329Z,376
2022-10-18T05:26:04.938Z,390
2022-10-18T05:27:05.237Z,388
2022-10-18T05:28:10.683Z,377
2022-10-18T05:29:05.882Z,378
2022-10-18T05:30:06.004Z,382
2022-10-18T05:31:05.638Z,389
2022-10-18T05:33:05.455Z,381
2022-10-18T05:34:05.152Z,378
2022-10-18T05:35:05.934Z,377
2022-10-18T05:36:05.405Z,387
2022-10-18T05:37:04.866Z,404
2022-10-18T05:38:05.206Z,386
2022-10-18T05:39:05.813Z,388
2022-10-18T05:40:05.401Z,386
2022-10-18T05:41:04.777Z,392
2022-10-18T05:42:04.714Z,380
2022-10-18T05:43:05.017Z,390
2022-10-18T05:44:05.618Z,399
2022-10-18T05:45:05.331Z,389
2022-10-18T05:46:09.201Z,384
2022-10-18T05:47:05.751Z,386
2022-10-18T05:48:05.065Z,399
2022-10-18T05:50:05.772Z,390
2022-10-18T05:51:05.086Z,386
2022-10-18T05:52:05.438Z,375
2022-10-18T05:53:12.042Z,377
2022-10-18T05:54:04.831Z,378
2022-10-18T05:55:05.063Z,391
2022-10-18T05:56:05.509Z,376
2022-10-18T05:57:04.688Z,378
2022-10-18T05:58:04.922Z,373
2022-10-18T05:59:05.081Z,372
2022-10-18T06:00:06.254Z,387
2022-10-18T06:01:04.743Z,384
2022-10-18T06:02:05.240Z,393
2022-10-18T06:03:05.900Z,398
2022-10-18T06:04:05.193Z,393
2022-10-18T06:05:06.051Z,385
2022-10-18T06:06:05.937Z,383
2022-10-18T06:07:05.785Z,386
2022-10-18T06:08:07.999Z,389
2022-10-18T06:10:05.504Z,394
2022-10-18T06:11:05.007Z,379
2022-10-18T06:12:05.542Z,400
2022-10-18T06:13:05.063Z,375
2022-10-18T06:14:05.636Z,395
2022-10-18T06:15:05.224Z,384
2022-10-18T06:16:05.652Z,389
2022-10-18T06:17:06.564Z,386
2022-10-18T06:18:05.033Z,385
2022-10-18T06:19:05.333Z,383
2022-10-18T06:20:05.778Z,382
2022-10-18T06:21:05.063Z,383
2022-10-18T06:22:05.435Z,391
2022-10-18T06:23:04.742Z,388
2022-10-18T06:24:05.170Z,384
2022-10-18T06:25:05.566Z,380
2022-10-18T06:26:05.206Z,389
2022-10-18T06:28:07.767Z,390
2022-10-18T06:29:05.792Z,394
2022-10-18T06:30:05.748Z,381
2022-10-18T06:31:05.002Z,379
2022-10-18T06:32:05.371Z,387
2022-10-18T06:33:05.761Z,385
2022-10-18T06:35:05.331Z,382
2022-10-18T06:36:06.059Z,384
2022-10-18T06:37:05.525Z,375
2022-10-18T06:38:04.864Z,381
2022-10-18T06:39:05.359Z,379
2022-10-18T06:40:05.942Z,372
2022-10-18T06:41:05.190Z,370
2022-10-18T06:42:05.721Z,383
2022-10-18T06:43:19.517Z,395
2022-10-18T06:44:05.828Z,385
2022-10-18T06:45:05.294Z,387
2022-10-18T06:46:05.665Z,381
2022-10-18T06:47:04.985Z,394
2022-10-18T06:48:05.438Z,391
2022-10-18T06:49:04.913Z,376
2022-10-18T06:51:05.504Z,381
2022-10-18T06:52:04.909Z,384
2022-10-18T06:53:05.063Z,374
2022-10-18T06:54:17.303Z,378
2022-10-18T06:55:08.978Z,377
2022-10-18T06:56:05.448Z,372
2022-10-18T06:57:05.059Z,365
2022-10-18T06:58:05.709Z,372
2022-10-18T06:59:10.154Z,373
2022-10-18T07:00:06.197Z,375
2022-10-18T07:01:10.708Z,380
2022-10-18T07:02:05.223Z,376
2022-10-18T07:03:05.884Z,370
2022-10-18T07:04:05.260Z,378
2022-10-18T07:05:10.831Z,359
2022-10-18T07:06:05.461Z,371
2022-10-18T07:07:04.921Z,365
2022-10-18T07:08:05.341Z,373
2022-10-18T07:11:05.469Z,372
2022-10-18T07:12:05.216Z,373
2022-10-18T07:13:31.357Z,380
2022-10-18T07:14:04.674Z,375
2022-10-18T07:15:13.412Z,366
2022-10-18T07:16:04.987Z,367
2022-10-18T07:17:19.249Z,368
2022-10-18T07:18:05.585Z,376
2022-10-18T07:19:05.079Z,383
2022-10-18T07:20:05.786Z,377
2022-10-18T07:21:05.422Z,376
2022-10-18T07:22:05.083Z,344
2022-10-18T07:23:05.485Z,357
2022-10-18T07:24:05.014Z,366
2022-10-18T07:25:05.502Z,374
2022-10-18T07:26:05.062Z,371
2022-10-18T07:27:05.642Z,369
2022-10-18T07:28:05.369Z,364
2022-10-18T07:29:05.617Z,359
2022-10-18T07:30:05.432Z,349
2022-10-18T07:31:06.183Z,354
2022-10-18T07:32:05.862Z,356
2022-10-18T07:33:05.471Z,357
2022-10-18T07:34:06.019Z,369
2022-10-18T07:35:05.584Z,373
2022-10-18T07:36:05.058Z,365
2022-10-18T07:37:05.677Z,357
2022-10-18T07:38:05.182Z,362
2022-10-18T07:39:05.604Z,339
2022-10-18T07:40:05.184Z,341
2022-10-18T07:41:05.498Z,357
2022-10-18T07:42:04.991Z,356
2022-10-18T07:43:06.241Z,361
2022-10-18T07:44:05.082Z,367
2022-10-18T07:45:14.788Z,359
2022-10-18T07:46:05.303Z,367
2022-10-18T07:47:05.610Z,355
2022-10-18T07:48:04.883Z,354
2022-10-18T07:50:05.613Z,345
2022-10-18T07:51:05.157Z,346
2022-10-18T07:52:05.383Z,353
2022-10-18T07:53:05.921Z,356
2022-10-18T07:54:05.304Z,359
2022-10-18T07:55:05.489Z,342
2022-10-18T07:56:08.581Z,389
2022-10-18T07:57:04.430Z,360
2022-10-18T07:58:05.338Z,344
2022-10-18T07:59:05.470Z,343
2022-10-18T08:00:05.587Z,353
2022-10-18T08:01:06.210Z,354
2022-10-18T08:02:05.923Z,355
2022-10-18T08:03:05.576Z,348
2022-10-18T08:04:07.906Z,347
2022-10-18T08:05:05.257Z,342
2022-10-18T08:06:05.709Z,344
2022-10-18T08:07:05.070Z,357
2022-10-18T08:08:07.930Z,362
2022-10-18T08:09:05.694Z,357
2022-10-18T08:10:05.248Z,360
2022-10-18T08:11:05.511Z,361
2022-10-18T08:12:05.107Z,356
2022-10-18T08:14:05.175Z,358
2022-10-18T08:15:05.964Z,366
2022-10-18T08:16:05.550Z,362
2022-10-18T08:17:04.776Z,366
2022-10-18T08:18:05.107Z,362
2022-10-18T08:19:05.355Z,353
2022-10-18T08:20:18.998Z,356
2022-10-18T08:21:04.854Z,355
2022-10-18T08:22:05.044Z,348
2022-10-18T08:23:05.436Z,358
2022-10-18T08:24:04.907Z,369
2022-10-18T08:25:05.415Z,357
2022-10-18T08:26:04.716Z,346
2022-10-18T08:27:04.997Z,351
2022-10-18T08:28:04.928Z,357
2022-10-18T08:29:22.445Z,370
2022-10-18T08:30:05.563Z,362
2022-10-18T08:31:05.015Z,358
2022-10-18T08:32:05.426Z,350
2022-10-18T08:33:05.923Z,351
2022-10-18T08:34:05.274Z,362
2022-10-18T08:35:08.511Z,364
2022-10-18T08:36:04.849Z,352
2022-10-18T08:38:05.515Z,356
2022-10-18T08:39:04.622Z,357
2022-10-18T08:40:04.809Z,352
2022-10-18T08:41:05.119Z,354
2022-10-18T08:42:05.237Z,365
2022-10-18T08:43:05.594Z,370
2022-10-18T08:44:07.216Z,359
2022-10-18T08:45:17.699Z,355
2022-10-18T08:46:05.254Z,353
2022-10-18T08:47:05.474Z,358
2022-10-18T08:48:04.742Z,349
2022-10-18T08:50:05.329Z,345
2022-10-18T08:51:05.571Z,347
2022-10-18T08:52:04.730Z,349
2022-10-18T08:53:05.076Z,357
2022-10-18T08:54:05.432Z,358
2022-10-18T08:55:05.688Z,355
2022-10-18T08:56:05.016Z,346
2022-10-18T08:57:05.097Z,353
2022-10-18T08:58:05.544Z,356
2022-10-18T08:59:04.977Z,352
2022-10-18T09:00:05.754Z,347
2022-10-18T09:01:05.252Z,351
2022-10-18T09:02:05.553Z,356
2022-10-18T09:03:05.375Z,358
2022-10-18T09:04:05.780Z,366
2022-10-18T09:05:05.112Z,350
2022-10-18T09:06:05.272Z,369
2022-10-18T09:07:05.735Z,355
2022-10-18T09:08:05.086Z,354
2022-10-18T09:09:05.424Z,359
2022-10-18T09:10:06.017Z,353
2022-10-18T09:11:05.440Z,360
2022-10-18T09:12:04.663Z,355
2022-10-18T09:13:04.980Z,357
2022-10-18T09:14:05.417Z,361
2022-10-18T09:15:05.830Z,363
2022-10-18T09:16:05.053Z,365
2022-10-18T09:17:05.644Z,349
2022-10-18T09:19:05.196Z,354
2022-10-18T09:20:05.660Z,349
2022-10-18T09:21:05.197Z,353
2022-10-18T09:22:07.469Z,352
2022-10-18T09:23:05.470Z,342
2022-10-18T09:24:05.126Z,352
2022-10-18T09:25:05.767Z,349
2022-10-18T09:26:05.092Z,339
2022-10-18T09:27:05.414Z,343
2022-10-18T09:28:04.850Z,344
2022-10-18T09:29:05.237Z,343
2022-10-18T09:30:04.971Z,345
2022-10-18T09:32:09.869Z,347
2022-10-18T09:33:05.978Z,350
2022-10-18T09:34:13.212Z,351
2022-10-18T09:35:05.521Z,349
2022-10-18T09:36:04.766Z,341
2022-10-18T09:37:05.386Z,351
2022-10-18T09:38:05.589Z,339
2022-10-18T09:39:04.608Z,365
2022-10-18T09:40:04.683Z,355
2022-10-18T09:41:04.721Z,351
2022-10-18T09:42:04.878Z,354
2022-10-18T09:43:05.016Z,350
2022-10-18T09:44:05.146Z,349
2022-10-18T09:45:05.614Z,352
2022-10-18T09:46:04.880Z,353
2022-10-18T09:47:05.095Z,360
2022-10-18T09:49:05.509Z,357
2022-10-18T09:50:04.848Z,363
2022-10-18T09:51:04.989Z,358
2022-10-18T09:52:05.357Z,350
2022-10-18T09:53:05.557Z,356
2022-10-18T09:54:04.530Z,365
2022-10-18T09:56:04.964Z,374
2022-10-18T09:57:05.465Z,351
2022-10-18T09:58:05.764Z,350
2022-10-18T09:59:04.898Z,362
2022-10-18T10:00:05.613Z,356
2022-10-18T10:01:04.951Z,352
2022-10-18T10:02:05.352Z,355
2022-10-18T10:03:05.781Z,353
2022-10-18T10:04:04.874Z,347
2022-10-18T10:05:05.169Z,350
2022-10-18T10:06:05.299Z,363
2022-10-18T10:07:05.462Z,370
2022-10-18T10:08:05.729Z,371
2022-10-18T10:09:04.932Z,370
2022-10-18T10:10:05.181Z,366
2022-10-18T10:11:05.506Z,363
2022-10-18T10:12:04.895Z,345
2022-10-18T10:13:04.951Z,389
2022-10-18T10:14:05.206Z,341
2022-10-18T10:15:05.869Z,343
2022-10-18T10:16:04.995Z,342
2022-10-18T10:17:10.575Z,351
2022-10-18T10:18:05.713Z,358
2022-10-18T10:19:04.742Z,357
2022-10-18T10:20:04.893Z,359
2022-10-18T10:21:05.180Z,350
2022-10-18T10:23:05.467Z,370
2022-10-18T10:24:07.237Z,357
2022-10-18T10:25:05.650Z,352
2022-10-18T10:26:04.801Z,360
2022-10-18T10:27:04.833Z,365
2022-10-18T10:28:04.770Z,360
2022-10-18T10:29:09.901Z,368
2022-10-18T10:30:06.975Z,362
2022-10-18T10:31:05.490Z,343
2022-10-18T10:32:05.464Z,350
2022-10-18T10:34:05.238Z,353
2022-10-18T10:36:04.661Z,354
2022-10-18T10:37:04.825Z,355
2022-10-18T10:38:05.580Z,347
2022-10-18T10:39:05.055Z,342
2022-10-18T10:40:19.050Z,347
2022-10-18T10:41:05.366Z,346
2022-10-18T10:42:09.264Z,352
2022-10-18T10:43:18.178Z,367
2022-10-18T10:44:05.471Z,362
2022-10-18T10:45:06.040Z,353
2022-10-18T10:46:05.492Z,352
2022-10-18T10:47:05.135Z,388
2022-10-18T10:48:05.456Z,344
2022-10-18T10:49:34.612Z,341
2022-10-18T10:50:05.745Z,356
2022-10-18T10:51:05.079Z,363
2022-10-18T10:52:08.826Z,359
2022-10-18T10:53:05.319Z,343
2022-10-18T10:54:05.840Z,346
2022-10-18T10:55:23.581Z,355
2022-10-18T10:56:05.321Z,359
2022-10-18T10:57:05.629Z,355
2022-10-18T10:58:05.196Z,353
2022-10-18T10:59:05.645Z,349
2022-10-18T11:01:07.802Z,368
2022-10-18T11:02:05.657Z,361
2022-10-18T11:03:10.819Z,366
2022-10-18T11:04:05.648Z,369
2022-10-18T11:05:05.047Z,353
2022-10-18T11:06:05.469Z,355
2022-10-18T11:07:05.786Z,357
2022-10-18T11:08:05.299Z,359
2022-10-18T11:09:05.487Z,354
2022-10-18T11:10:05.925Z,355
2022-10-18T11:11:05.521Z,353
2022-10-18T11:12:05.147Z,349
2022-10-18T11:13:05.624Z,350
2022-10-18T11:15:05.328Z,365
2022-10-18T11:16:05.752Z,354
2022-10-18T11:17:07.918Z,352
2022-10-18T11:18:05.422Z,349
2022-10-18T11:19:05.711Z,352
2022-10-18T11:20:05.277Z,351
2022-10-18T11:21:05.759Z,353
2022-10-18T11:22:05.362Z,338
2022-10-18T11:23:05.744Z,343
2022-10-18T11:24:05.007Z,353
2022-10-18T11:25:05.401Z,358
2022-10-18T11:26:05.176Z,354
2022-10-18T11:27:05.349Z,358
2022-10-18T11:28:05.078Z,360
2022-10-18T11:29:05.606Z,359
2022-10-18T11:30:05.461Z,362
2022-10-18T11:31:04.962Z,356
2022-10-18T11:32:05.580Z,355
2022-10-18T11:33:05.050Z,348
2022-10-18T11:34:09.882Z,351
2022-10-18T11:35:05.694Z,354
2022-10-18T11:36:05.417Z,357
2022-10-18T11:37:26.461Z,346
2022-10-18T11:38:05.502Z,381
2022-10-18T11:39:05.453Z,341
2022-10-18T11:40:05.362Z,346
2022-10-18T11:41:05.077Z,348
2022-10-18T11:42:05.604Z,357
2022-10-18T11:43:05.285Z,356
2022-10-18T11:44:05.784Z,353
2022-10-18T11:45:05.527Z,361
2022-10-18T11:46:05.205Z,359
2022-10-18T11:47:05.658Z,350
2022-10-18T11:48:05.029Z,348
2022-10-18T11:49:05.583Z,365
2022-10-18T11:50:05.209Z,354
2022-10-18T11:51:05.666Z,352
2022-10-18T11:52:08.646Z,356
2022-10-18T11:53:10.714Z,349
2022-10-18T11:54:05.059Z,337
2022-10-18T11:55:10.434Z,360
2022-10-18T11:56:05.951Z,357
2022-10-18T11:57:10.252Z,349
2022-10-18T11:58:05.457Z,355
2022-10-18T11:59:04.913Z,353
2022-10-18T12:00:05.921Z,349
2022-10-18T12:01:05.532Z,348
2022-10-18T12:02:05.471Z,361
2022-10-18T12:03:12.990Z,346
2022-10-18T12:04:05.566Z,347
2022-10-18T12:05:24.699Z,346
2022-10-18T12:06:05.578Z,351
2022-10-18T12:07:23.378Z,359
2022-10-18T12:08:05.604Z,357
2022-10-18T12:09:05.278Z,367
2022-10-18T12:10:05.814Z,375
2022-10-18T12:11:06.284Z,368
2022-10-18T12:12:05.302Z,356
2022-10-18T12:13:05.292Z,360
2022-10-18T12:14:05.846Z,361
2022-10-18T12:15:05.719Z,355
2022-10-18T12:17:39.632Z,363
2022-10-18T12:18:05.455Z,367
2022-10-18T12:19:05.241Z,360
2022-10-18T12:20:05.991Z,358
2022-10-18T12:21:05.666Z,348
2022-10-18T12:22:05.674Z,353
2022-10-18T12:23:05.495Z,355
2022-10-18T12:24:05.622Z,348
2022-10-18T12:25:05.772Z,352
2022-10-18T12:26:05.586Z,361
2022-10-18T12:27:05.163Z,359
2022-10-18T12:28:05.766Z,338
2022-10-18T12:29:05.568Z,369
2022-10-18T12:30:05.635Z,361
2022-10-18T12:31:05.424Z,358
2022-10-18T12:32:05.178Z,360
2022-10-18T12:33:28.622Z,353
2022-10-18T12:34:05.638Z,355
2022-10-18T12:35:05.360Z,351
2022-10-18T12:36:05.173Z,353
2022-10-18T12:37:05.588Z,356
2022-10-18T12:38:06.003Z,350
2022-10-18T12:40:10.615Z,351
2022-10-18T12:42:05.497Z,352
2022-10-18T12:43:05.194Z,351
2022-10-18T12:44:05.761Z,353
2022-10-18T12:45:05.687Z,359
2022-10-18T12:46:07.276Z,340
2022-10-18T12:47:04.868Z,352
2022-10-18T12:48:05.594Z,354
2022-10-18T12:49:05.313Z,353
2022-10-18T12:50:05.866Z,351
2022-10-18T12:51:05.476Z,355
2022-10-18T12:52:05.396Z,365
2022-10-18T12:53:05.670Z,363
2022-10-18T12:54:05.317Z,356
2022-10-18T12:55:06.066Z,348
2022-10-18T12:56:05.611Z,346
2022-10-18T12:57:05.632Z,348
2022-10-18T12:58:05.407Z,352
2022-10-18T12:59:05.421Z,346
2022-10-18T13:00:06.382Z,340
2022-10-18T13:04:05.262Z,333
2022-10-18T13:05:12.277Z,342
2022-10-18T13:06:06.732Z,345
2022-10-18T13:07:05.368Z,343
2022-10-18T13:08:05.104Z,357
2022-10-18T13:09:05.846Z,350
2022-10-18T13:10:05.508Z,330
2022-10-18T13:11:05.074Z,337
2022-10-18T13:12:05.470Z,345
2022-10-18T13:13:23.827Z,353
2022-10-18T13:14:05.518Z,356
2022-10-18T13:15:12.553Z,346
2022-10-18T13:16:05.147Z,341
2022-10-18T13:17:05.663Z,348
2022-10-18T13:18:05.287Z,368
2022-10-18T13:19:05.633Z,336
2022-10-18T13:20:25.013Z,342
2022-10-18T13:21:05.493Z,341
2022-10-18T13:22:05.113Z,349
2022-10-18T13:23:05.618Z,347
2022-10-18T13:24:05.418Z,342
2022-10-18T13:25:05.963Z,345
2022-10-18T13:26:05.527Z,341
2022-10-18T13:28:05.070Z,345
2022-10-18T13:29:05.639Z,355
2022-10-18T13:30:05.762Z,351
2022-10-18T13:31:05.323Z,337
2022-10-18T13:32:06.049Z,335
2022-10-18T13:33:05.479Z,336
2022-10-18T13:34:05.387Z,356
2022-10-18T13:35:05.913Z,319
2022-10-18T13:36:05.425Z,327
2022-10-18T13:37:05.072Z,332
2022-10-18T13:38:05.623Z,337
2022-10-18T13:39:05.371Z,338
2022-10-18T13:40:05.946Z,337
2022-10-18T13:41:05.568Z,339
2022-10-18T13:42:05.075Z,349
2022-10-18T13:43:05.503Z,352
2022-10-18T13:44:05.088Z,351
2022-10-18T13:45:05.915Z,347
2022-10-18T13:46:05.464Z,339
2022-10-18T13:47:05.923Z,340
2022-10-18T13:48:05.344Z,344
2022-10-18T13:49:05.645Z,347
2022-10-18T13:50:05.107Z,355
2022-10-18T13:51:05.666Z,343
2022-10-18T13:52:04.938Z,344
2022-10-18T13:53:05.642Z,348
2022-10-18T13:54:05.110Z,350
2022-10-18T13:55:05.590Z,359
2022-10-18T13:56:05.017Z,342
2022-10-18T13:57:05.606Z,335
2022-10-18T13:58:04.803Z,337
2022-10-18T13:59:14.351Z,344
2022-10-18T14:00:05.953Z,334
2022-10-18T14:01:05.528Z,335
2022-10-18T14:02:05.136Z,350
2022-10-18T14:03:09.230Z,340
2022-10-18T14:04:05.130Z,334
2022-10-18T14:05:23.406Z,330
2022-10-18T14:06:05.473Z,318
2022-10-18T14:07:05.910Z,356
2022-10-18T14:08:09.586Z,350
2022-10-18T14:10:05.458Z,339
2022-10-18T14:11:05.471Z,343
2022-10-18T14:13:05.979Z,349
2022-10-18T14:14:05.668Z,340
2022-10-18T14:15:05.148Z,342
2022-10-18T14:16:05.747Z,350
2022-10-18T14:17:05.654Z,349
2022-10-18T14:18:10.755Z,347
2022-10-18T14:19:05.778Z,354
2022-10-18T14:20:10.251Z,343
2022-10-18T14:21:15.290Z,339
2022-10-18T14:22:10.997Z,334
2022-10-18T14:23:05.961Z,326
2022-10-18T14:24:05.571Z,330
2022-10-18T14:25:05.427Z,333
2022-10-18T14:26:13.083Z,338
2022-10-18T14:27:05.826Z,345
2022-10-18T14:28:08.934Z,336
2022-10-18T14:29:05.205Z,335
2022-10-18T14:30:05.488Z,336
2022-10-18T14:31:05.349Z,337
2022-10-18T14:32:19.380Z,334
2022-10-18T14:33:06.150Z,337
2022-10-18T14:34:19.001Z,332
2022-10-18T14:36:19.321Z,338
2022-10-18T14:37:05.918Z,331
2022-10-18T14:38:05.654Z,343
2022-10-18T14:39:05.184Z,358
2022-10-18T14:40:05.703Z,348
2022-10-18T14:41:05.673Z,342
2022-10-18T14:42:05.320Z,343
2022-10-18T14:43:05.263Z,340